Time;durP1;ratioP1;P1;durP2;ratioP2;P2;SDS_P1;SDS_P2;PMS_P1;PMS_P2;Temp;Humidity;BMP_temperature;BMP_pressure;BME280_temperature;BME280_humidity;BME280_pressure;Samples;Min_cycle;Max_cycle;Signal;HPM_P1;HPM_P2
2022/05/06 00:01:37;;;;;;;23.55;20.63;;;;;;;10.12;86.79;102336.97;4909771;29;20062;-93
2022/05/06 00:04:11;;;;;;;21.95;19.58;;;;;;;10.07;87.40;102341.25;4925020;29;20039;-93
2022/05/06 00:07:00;;;;;;;20.90;18.58;;;;;;;10.03;88.41;102340.75;4906505;29;20113;-95
2022/05/06 00:10:15;;;;;;;;;;;;;;;;;;;;;
2022/05/06 00:16:34;;;;;;;20.25;17.40;;;;;;;9.93;87.02;102349.09;4917465;29;20040;-96
2022/05/06 00:19:59;;;;;;;;;;;;;;;;;;;;;
2022/05/06 00:23:04;;;;;;;;;;;;;;;;;;;;;
2022/05/06 00:28:46;;;;;;;19.90;17.42;;;;;;;9.74;87.28;102347.63;4938879;29;20043;-94
2022/05/06 00:31:22;;;;;;;20.10;17.08;;;;;;;9.71;89.44;102353.38;4922543;29;20114;-94
2022/05/06 00:33:55;;;;;;;20.45;17.45;;;;;;;9.74;89.50;102366.59;4922543;29;20468;-95
2022/05/06 00:36:38;;;;;;;21.35;17.90;;;;;;;9.72;90.49;102365.09;4890055;29;20040;-95
2022/05/06 00:48:23;;;;;;;;;;;;;;;;;;;;;
2022/05/06 00:51:08;;;;;;;22.83;14.30;;;;;;;9.54;87.99;102351.75;4941900;29;20031;-94
2022/05/06 00:54:14;;;;;;;;;;;;;;;;;;;;;
2022/05/06 00:56:51;;;;;;;22.83;19.17;;;;;;;9.45;90.41;102346.31;4956689;29;20423;-95
2022/05/06 01:00:17;;;;;;;20.02;12.75;;;;;;;9.40;87.61;102347.84;4940138;29;20065;-95
2022/05/06 01:02:41;;;;;;;21.27;18.17;;;;;;;9.39;88.32;102349.72;4956696;29;20065;-94
2022/05/06 01:05:27;;;;;;;;;;;;;;;;;;;;;
2022/05/06 01:10:54;;;;;;;20.33;12.75;;;;;;;9.27;90.21;102357.34;4956482;29;20490;-93
2022/05/06 01:14:21;;;;;;;22.60;14.20;;;;;;;9.27;87.61;102365.47;4939053;29;20075;-94
2022/05/06 01:17:09;;;;;;;23.58;19.67;;;;;;;9.20;90.80;102350.91;4938687;29;20126;-94
2022/05/06 01:20:16;;;;;;;;;;;;;;;;;;;;;
2022/05/06 01:23:23;;;;;;;;;;;;;;;;;;;;;
2022/05/06 01:26:24;;;;;;;;;;;;;;;;;;;;;
2022/05/06 01:29:31;;;;;;;21.70;18.15;;;;;;;9.15;89.49;102371.38;4952874;29;20061;-94
2022/05/06 01:32:27;;;;;;;20.80;17.88;;;;;;;9.07;90.57;102359.53;4939978;29;20035;-94
2022/05/06 01:38:21;;;;;;;21.25;17.95;;;;;;;9.13;90.05;102364.28;4951653;29;20129;-94
2022/05/06 01:41:16;;;;;;;21.50;18.20;;;;;;;9.15;88.93;102361.41;4924429;29;20126;-94
2022/05/06 01:44:06;;;;;;;23.20;19.58;;;;;;;9.19;91.49;102362.75;4933606;29;20070;-93
2022/05/06 01:47:03;;;;;;;30.33;19.95;;;;;;;9.32;89.42;102372.25;4940447;29;20046;-94
2022/05/06 01:49:55;;;;;;;26.80;21.73;;;;;;;9.30;88.79;102367.84;4887274;29;20043;-94
2022/05/06 01:52:37;;;;;;;24.42;21.45;;;;;;;9.33;91.35;102358.53;4941195;29;20125;-93
2022/05/06 01:55:32;;;;;;;30.90;22.33;;;;;;;9.36;92.05;102373.59;4928682;29;20132;-93
2022/05/06 01:58:19;;;;;;;33.67;23.40;;;;;;;9.42;91.02;102375.59;4941025;29;20024;-93
2022/05/06 02:00:55;;;;;;;22.88;15.07;;;;;;;9.35;90.94;102366.50;4943162;29;20039;-93
2022/05/06 02:07:21;;;;;;;23.20;13.98;;;;;;;9.41;86.84;102365.81;4948500;29;20050;-93
2022/05/06 02:10:38;;;;;;;24.95;19.33;;;;;;;9.42;87.27;102362.94;4927779;29;20549;-94
2022/05/06 02:13:32;;;;;;;23.23;20.10;;;;;;;9.56;87.46;102371.38;4955798;29;20035;-93
2022/05/06 02:16:11;;;;;;;;;;;;;;;;;;;;;
2022/05/06 02:21:47;;;;;;;;;;;;;;;;;;;;;
2022/05/06 02:24:21;;;;;;;23.40;18.83;;;;;;;9.46;90.14;102364.28;4932227;29;20414;-93
2022/05/06 02:36:11;;;;;;;;;;;;;;;;;;;;;
2022/05/06 02:38:59;;;;;;;21.33;13.75;;;;;;;9.46;88.24;102364.28;4959634;29;20033;-94
2022/05/06 02:41:44;;;;;;;44.30;19.00;;;;;;;9.43;89.73;102366.47;4926334;29;20059;-93
2022/05/06 02:45:03;;;;;;;;;;;;;;;;;;;;;
2022/05/06 02:51:01;;;;;;;20.42;13.68;;;;;;;9.30;88.97;102377.81;4916346;29;20043;-93
2022/05/06 02:53:42;;;;;;;25.52;18.77;;;;;;;9.16;90.19;102389.34;4912191;29;20077;-94
2022/05/06 02:56:39;;;;;;;22.23;18.05;;;;;;;9.16;89.04;102392.03;4913414;29;20047;-94
2022/05/06 02:59:34;;;;;;;24.65;18.58;;;;;;;9.15;88.94;102383.06;4856407;29;20617;-93
2022/05/06 03:02:57;;;;;;;21.13;16.35;;;;;;;9.16;89.87;102376.63;4916485;29;20054;-94
2022/05/06 03:06:01;;;;;;;19.10;16.83;;;;;;;9.19;89.69;102375.47;4921662;29;20039;-95
2022/05/06 03:08:32;;;;;;;22.15;19.23;;;;;;;9.23;89.71;102376.81;4942961;29;20383;-94
2022/05/06 03:11:12;;;;;;;24.13;16.98;;;;;;;9.34;89.66;102383.75;4925101;29;20067;-95
2022/05/06 03:14:17;;;;;;;;;;;;;;;;;;;;;
2022/05/06 03:17:16;;;;;;;;;;;;;;;;;;;;;
2022/05/06 03:20:00;;;;;;;;;;;;;;;;;;;;;
2022/05/06 03:22:55;;;;;;;22.15;17.98;;;;;;;9.10;90.79;102375.44;4939509;29;20436;-95
2022/05/06 03:25:59;;;;;;;;;;;;;;;;;;;;;
2022/05/06 03:29:02;;;;;;;;;;;;;;;;;;;;;
2022/05/06 03:32:10;;;;;;;;;;;;;;;;;;;;;
2022/05/06 03:38:16;;;;;;;19.48;12.25;;;;;;;8.77;89.88;102374.56;4911072;29;20412;-94
2022/05/06 03:40:58;;;;;;;15.85;10.68;;;;;;;8.67;91.61;102371.16;4907190;29;20476;-94
2022/05/06 03:43:45;;;;;;;;;;;;;;;;;;;;;
2022/05/06 03:46:31;;;;;;;23.85;12.63;;;;;;;8.71;92.45;102388.75;4945138;29;20047;-94
2022/05/06 03:49:40;;;;;;;;;;;;;;;;;;;;;
2022/05/06 03:52:29;;;;;;;15.50;10.82;;;;;;;8.69;89.94;102382.66;4942665;29;20045;-94
2022/05/06 03:58:48;;;;;;;18.73;13.80;;;;;;;8.81;90.85;102378.63;4932141;29;20188;-94
2022/05/06 04:01:59;;;;;;;;;;;;;;;;;;;;;
2022/05/06 04:04:49;;;;;;;19.02;10.90;;;;;;;8.80;92.60;102379.66;4950039;29;20475;-95
2022/05/06 04:07:45;;;;;;;;;;;;;;;;;;;;;
2022/05/06 04:10:30;;;;;;;20.27;14.02;;;;;;;8.71;92.24;102377.91;4944052;29;20042;-94
2022/05/06 04:13:40;;;;;;;15.38;13.77;;;;;;;8.81;91.73;102381.31;4924615;29;20059;-94
2022/05/06 04:16:51;;;;;;;;;;;;;;;;;;;;;
2022/05/06 04:25:48;;;;;;;14.23;9.60;;;;;;;8.97;90.12;102380.50;4957388;29;20113;-93
2022/05/06 04:28:32;;;;;;;23.20;14.57;;;;;;;8.99;92.62;102391.16;4940187;29;20447;-94
2022/05/06 04:34:46;;;;;;;;;;;;;;;;;;;;;
2022/05/06 04:37:36;;;;;;;18.95;11.13;;;;;;;8.73;93.88;102401.09;4941959;29;20031;-94
2022/05/06 04:40:43;;;;;;;;;;;;;;;;;;;;;
2022/05/06 04:43:21;;;;;;;14.23;9.65;;;;;;;8.77;91.34;102404.34;4943280;29;20035;-95
2022/05/06 04:45:58;;;;;;;21.17;12.40;;;;;;;8.88;91.52;102405.88;4920085;29;20060;-94
2022/05/06 04:49:01;;;;;;;26.52;14.25;;;;;;;8.97;90.63;102412.16;4920593;29;20032;-96
2022/05/06 04:51:31;;;;;;;17.70;13.07;;;;;;;8.93;92.69;102404.38;4920858;29;20067;-94
2022/05/06 04:54:10;;;;;;;;;;;;;;;;;;;;;
2022/05/06 04:56:44;;;;;;;21.02;14.05;;;;;;;8.91;92.76;102414.50;4922325;29;20031;-95
2022/05/06 04:59:18;;;;;;;18.02;12.82;;;;;;;8.95;91.41;102407.75;4921139;29;20031;-94
2022/05/06 05:01:55;;;;;;;17.75;11.30;;;;;;;9.05;91.70;102417.56;4921136;29;20039;-94
2022/05/06 05:04:52;;;;;;;;;;;;;;;;;;;;;
2022/05/06 05:08:06;;;;;;;21.30;12.82;;;;;;;9.13;92.76;102420.31;4909293;29;20472;-94
2022/05/06 05:13:39;;;;;;;21.30;13.32;;;;;;;9.26;90.22;102430.66;4941211;29;20046;-93
2022/05/06 05:16:08;;;;;;;15.02;10.02;;;;;;;9.39;90.31;102432.84;4921028;29;20110;-89
2022/05/06 05:18:39;;;;;;;18.85;13.60;;;;;;;9.45;90.54;102433.03;4919613;29;20027;-88
2022/05/06 05:21:12;;;;;;;16.52;13.95;;;;;;;9.55;90.05;102430.16;4919669;29;20031;-88
2022/05/06 05:23:41;;;;;;;17.10;13.95;;;;;;;9.73;89.86;102446.22;4919800;29;20468;-90
2022/05/06 05:26:09;;;;;;;24.33;14.13;;;;;;;9.76;89.91;102440.47;4936193;29;20043;-88
2022/05/06 05:28:35;;;;;;;18.00;13.95;;;;;;;9.73;90.14;102435.38;4938105;29;20039;-89
2022/05/06 05:31:29;;;;;;;16.73;13.77;;;;;;;9.76;91.24;102439.63;4923651;29;20027;-91
2022/05/06 05:34:01;;;;;;;18.77;16.77;;;;;;;9.84;90.24;102421.47;4920366;29;20058;-90
2022/05/06 05:36:49;;;;;;;19.88;15.10;;;;;;;9.94;90.71;102425.88;4919878;29;20070;-91
2022/05/06 05:39:38;;;;;;;;;;;;;;;;;;;;;
2022/05/06 05:42:29;;;;;;;;;;;;;;;;;;;;;
2022/05/06 05:50:53;;;;;;;20.58;18.13;;;;;;;10.03;90.83;102445.69;4909679;29;20054;-93
2022/05/06 05:53:25;;;;;;;26.30;18.25;;;;;;;9.91;93.00;102439.78;4919564;29;20491;-92
2022/05/06 05:56:06;;;;;;;20.80;17.52;;;;;;;10.14;91.24;102450.72;4919952;29;20035;-92
2022/05/06 05:58:39;;;;;;;19.88;16.58;;;;;;;10.32;90.51;102435.09;4920005;29;20028;-92
2022/05/06 06:01:08;;;;;;;20.08;17.88;;;;;;;10.51;89.51;102442.00;4919885;29;20130;-92
2022/05/06 06:03:38;;;;;;;21.05;17.92;;;;;;;10.69;89.02;102438.19;4919626;29;20051;-93
2022/05/06 06:06:09;;;;;;;20.25;17.42;;;;;;;10.86;87.58;102439.78;4937181;29;20043;-91
2022/05/06 06:08:35;;;;;;;21.85;17.38;;;;;;;10.97;86.75;102437.69;4919456;29;20043;-92
2022/05/06 06:11:04;;;;;;;18.23;15.57;;;;;;;10.83;88.36;102425.72;4919611;29;20028;-91
2022/05/06 06:13:43;;;;;;;23.33;17.02;;;;;;;10.93;88.62;102433.66;4919105;29;20060;-91
2022/05/06 06:16:09;;;;;;;21.98;16.98;;;;;;;10.90;89.12;102434.00;4919468;29;20031;-92
2022/05/06 06:18:34;;;;;;;25.23;20.25;;;;;;;10.76;89.16;102435.59;4919657;29;20373;-92
2022/05/06 06:21:00;;;;;;;27.48;22.83;;;;;;;10.59;89.74;102424.81;4919470;29;20023;-92
2022/05/06 06:23:56;;;;;;;31.55;21.02;;;;;;;10.62;90.04;102426.34;4919749;29;20448;-93
2022/05/06 06:26:24;;;;;;;27.88;21.48;;;;;;;10.68;90.34;102436.50;4920324;29;20096;-92
2022/05/06 06:28:57;;;;;;;22.33;19.83;;;;;;;10.64;89.92;102432.44;4919362;29;20055;-92
2022/05/06 06:31:38;;;;;;;23.42;19.92;;;;;;;10.65;90.23;102429.53;4922034;29;20036;-96
2022/05/06 06:34:09;;;;;;;29.65;18.92;;;;;;;10.76;89.03;102435.59;4928379;29;20067;-96
2022/05/06 06:37:13;;;;;;;22.42;18.40;;;;;;;11.05;87.76;102435.75;4929658;29;20043;-96
2022/05/06 06:39:39;;;;;;;21.50;17.92;;;;;;;11.30;87.08;102424.72;4854734;29;20093;-96
2022/05/06 06:42:10;;;;;;;21.40;17.55;;;;;;;11.37;86.78;102435.72;4914197;29;20047;-96
2022/05/06 06:44:50;;;;;;;24.75;19.15;;;;;;;11.33;86.85;102428.97;4928066;29;20067;-96
2022/05/06 06:47:16;;;;;;;26.77;19.88;;;;;;;11.33;86.91;102431.69;4896489;29;20484;-96
2022/05/06 06:50:11;;;;;;;25.95;18.83;;;;;;;11.35;86.82;102432.31;4927980;29;20031;-96
2022/05/06 06:53:08;;;;;;;21.35;17.90;;;;;;;11.63;86.90;102429.88;4930657;29;20039;-96
2022/05/06 06:55:44;;;;;;;22.27;19.25;;;;;;;11.92;84.62;102442.69;4930887;29;20040;-96
2022/05/06 06:58:13;;;;;;;22.58;20.13;;;;;;;12.24;83.90;102457.03;4928649;29;20027;-96
2022/05/06 07:00:52;;;;;;;21.20;17.90;;;;;;;12.31;83.48;102458.97;4927161;29;20046;-96
2022/05/06 07:03:21;;;;;;;22.23;18.70;;;;;;;12.06;83.21;102454.66;4926422;29;20044;-96
2022/05/06 07:12:14;;;;;;;23.02;18.88;;;;;;;12.29;82.79;102473.63;4914516;29;20095;-96
2022/05/06 07:14:47;;;;;;;21.45;19.02;;;;;;;12.05;83.27;102469.28;4895204;29;20495;-96
2022/05/06 07:17:33;;;;;;;22.90;19.08;;;;;;;11.90;83.64;102461.09;4924350;29;20032;-96
2022/05/06 07:20:42;;;;;;;20.95;17.92;;;;;;;12.28;82.19;102466.50;4924521;29;20031;-96
2022/05/06 07:23:25;;;;;;;23.80;20.75;;;;;;;12.39;81.49;102462.47;4929003;29;20035;-96
2022/05/06 07:26:23;;;;;;;21.88;18.23;;;;;;;12.58;81.37;102461.03;4938910;29;20092;-96
2022/05/06 07:28:58;;;;;;;;;;;;;;;;;;;;;
2022/05/06 07:31:32;;;;;;;19.77;17.10;;;;;;;12.74;80.83;102470.03;4961148;29;20067;-96
2022/05/06 07:34:07;;;;;;;22.65;18.65;;;;;;;12.69;80.29;102489.66;4942094;29;20032;-96
2022/05/06 07:36:42;;;;;;;21.75;19.15;;;;;;;12.61;80.37;102484.34;4932712;29;20035;-96
2022/05/06 07:39:11;;;;;;;21.88;18.80;;;;;;;12.49;81.16;102491.28;4926427;29;20027;-96
2022/05/06 07:45:02;;;;;;;;;;;;;;;;;;;;;
2022/05/06 07:47:48;;;;;;;28.30;22.88;;;;;;;12.41;82.09;102503.94;4938405;29;20138;-96
2022/05/06 07:50:37;;;;;;;23.52;20.30;;;;;;;12.45;81.97;102491.66;4924696;29;20051;-96
2022/05/06 07:53:56;;;;;;;;;;;;;;;;;;;;;
2022/05/06 07:56:35;;;;;;;22.95;19.60;;;;;;;12.74;80.66;102503.56;4940651;29;20024;-96
2022/05/06 07:59:14;;;;;;;21.05;18.05;;;;;;;12.71;80.78;102497.63;4924788;29;20051;-96
2022/05/06 08:04:48;;;;;;;24.77;21.20;;;;;;;12.87;79.44;102502.88;4940794;29;20044;-96
2022/05/06 08:10:13;;;;;;;23.73;20.15;;;;;;;13.10;79.61;102510.09;4926325;29;20040;-96
2022/05/06 08:12:47;;;;;;;21.20;18.30;;;;;;;13.26;78.72;102522.63;4922231;29;20032;-96
2022/05/06 08:15:27;;;;;;;20.98;18.27;;;;;;;13.15;79.35;102526.69;4923256;29;20044;-96
2022/05/06 08:18:08;;;;;;;;;;;;;;;;;;;;;
2022/05/06 08:21:04;;;;;;;;;;;;;;;;;;;;;
2022/05/06 08:23:32;;;;;;;24.92;21.55;;;;;;;13.26;78.93;102518.03;4938170;29;20095;-96
2022/05/06 08:26:00;;;;;;;24.00;20.02;;;;;;;13.51;77.96;102501.34;4939762;29;20028;-96
2022/05/06 08:28:29;;;;;;;21.55;17.15;;;;;;;13.79;76.60;102504.09;4925168;29;20035;-96
2022/05/06 08:31:07;;;;;;;;;;;;;;;;;;;;;
2022/05/06 08:34:08;;;;;;;;;;;;;;;;;;;;;
2022/05/06 08:36:48;;;;;;;20.15;17.58;;;;;;;14.41;74.08;102495.31;4961253;29;20126;-96
2022/05/06 08:39:21;;;;;;;18.35;15.52;;;;;;;14.73;73.32;102485.63;4943718;29;20062;-96
2022/05/06 08:42:38;;;;;;;;;;;;;;;;;;;;;
2022/05/06 08:53:55;;;;;;;;;;;;;;;;;;;;;
2022/05/06 08:56:51;;;;;;;;;;;;;;;;;;;;;
2022/05/06 08:59:49;;;;;;;17.20;14.52;;;;;;;16.55;68.55;102473.78;4963870;29;20110;-96
2022/05/06 09:02:38;;;;;;;18.48;15.07;;;;;;;16.89;65.66;102483.59;4958019;29;20107;-93
2022/05/06 09:16:39;;;;;;;29.55;17.23;;;;;;;16.36;65.06;102483.72;5088509;28;20116;-86
2022/05/06 09:17:21;;;;;;;26.08;16.55;;;;;;;16.05;64.87;102472.41;5070486;28;20043;-86
2022/05/06 09:19:51;;;;;;;24.27;16.10;;;;;;;15.76;65.91;102482.72;5069649;28;20032;-86
2022/05/06 09:22:19;;;;;;;26.90;16.60;;;;;;;15.59;67.66;102468.63;5076704;28;20127;-86
2022/05/06 09:24:51;;;;;;;26.95;17.83;;;;;;;15.37;67.47;102458.94;5088012;28;20042;-86
2022/05/06 09:27:27;;;;;;;26.00;17.40;;;;;;;15.24;69.30;102471.50;5088475;28;20436;-86
2022/05/06 09:29:54;;;;;;;28.88;16.58;;;;;;;15.05;69.78;102469.56;5089976;28;20373;-86
2022/05/06 09:32:32;;;;;;;24.42;16.23;;;;;;;15.11;69.00;102465.19;5086960;28;20047;-86
2022/05/06 09:35:20;;;;;;;23.43;14.97;;;;;;;15.26;68.35;102471.28;5089718;28;20082;-86
2022/05/06 09:37:49;;;;;;;25.60;15.05;;;;;;;15.30;68.38;102444.41;5091046;28;20033;-86
2022/05/06 09:40:25;;;;;;;22.77;14.65;;;;;;;15.26;67.66;102447.56;5072182;28;20051;-86
2022/05/06 09:43:06;;;;;;;22.65;14.55;;;;;;;15.36;68.18;102446.28;5087782;28;20028;-87
2022/05/06 09:45:43;;;;;;;23.67;13.68;;;;;;;15.50;67.53;102453.47;5088093;28;20055;-86
2022/05/06 09:48:18;;;;;;;19.90;13.13;;;;;;;15.40;67.59;102434.72;5087146;28;20024;-85
2022/05/06 09:50:54;;;;;;;22.10;12.98;;;;;;;15.55;67.46;102445.47;5086552;28;20028;-86
2022/05/06 09:53:20;;;;;;;19.38;11.73;;;;;;;15.67;66.09;102456.63;5090473;28;20028;-85
2022/05/06 09:55:49;;;;;;;16.95;11.65;;;;;;;15.72;65.73;102450.50;5087255;28;20032;-86
2022/05/06 09:58:22;;;;;;;17.67;11.50;;;;;;;15.87;66.01;102442.97;5091181;28;20107;-84
2022/05/06 10:00:47;;;;;;;17.58;11.10;;;;;;;15.93;65.15;102442.13;5089193;28;20064;-85
2022/05/06 10:03:18;;;;;;;16.02;10.43;;;;;;;15.99;64.81;102439.56;5088650;28;20076;-85
2022/05/06 10:05:43;;;;;;;17.97;11.83;;;;;;;16.18;64.61;102455.13;5070804;28;20602;-86
2022/05/06 10:08:15;;;;;;;20.30;12.32;;;;;;;16.30;64.90;102463.53;5089525;28;20030;-85
2022/05/06 10:10:48;;;;;;;20.80;12.45;;;;;;;16.19;65.28;102445.84;5087585;28;20056;-85
2022/05/06 10:13:35;;;;;;;16.30;11.33;;;;;;;16.31;65.30;102454.25;5090144;28;20032;-85
2022/05/06 10:16:01;;;;;;;22.17;11.40;;;;;;;16.30;64.32;102449.84;5088725;28;20024;-86
2022/05/06 10:18:50;;;;;;;15.63;10.38;;;;;;;16.46;63.59;102429.31;5085632;28;20028;-85
2022/05/06 10:21:16;;;;;;;13.65;9.77;;;;;;;16.72;61.98;102425.66;5082348;28;20031;-85
2022/05/06 10:23:52;;;;;;;18.17;10.63;;;;;;;16.76;62.06;102415.94;5071577;28;20036;-86
2022/05/06 10:26:51;;;;;;;16.20;9.50;;;;;;;17.04;61.64;102428.47;5054742;28;20070;-85
2022/05/06 10:32:53;;;;;;;12.13;7.60;;;;;;;17.78;58.96;102442.47;5005131;28;20105;-85
2022/05/06 10:35:35;;;;;;;9.75;6.55;;;;;;;18.12;55.63;102432.03;4992826;28;20152;-85
2022/05/06 10:38:17;;;;;;;9.87;6.90;;;;;;;18.48;56.57;102429.50;5055500;28;20067;-85
2022/05/06 10:41:01;;;;;;;11.13;7.18;;;;;;;18.72;55.72;102428.56;5072654;28;20032;-86
2022/05/06 10:43:42;;;;;;;11.82;7.25;;;;;;;19.06;55.35;102428.97;5074753;28;20032;-85
2022/05/06 10:46:10;;;;;;;11.43;7.68;;;;;;;19.26;52.95;102398.38;5074524;28;20123;-86
2022/05/06 10:48:46;;;;;;;;;;;;;;;;;;;;;
2022/05/06 10:51:24;;;;;;;10.10;6.83;;;;;;;19.54;51.95;102396.88;5075509;28;20043;-86
2022/05/06 10:53:54;;;;;;;12.23;7.72;;;;;;;19.67;50.91;102395.81;5073043;28;20043;-86
2022/05/06 10:56:22;;;;;;;8.98;7.07;;;;;;;20.02;50.87;102389.47;5074854;28;20116;-85
2022/05/06 10:59:05;;;;;;;11.38;7.03;;;;;;;20.41;49.58;102400.75;5074243;28;20028;-85
2022/05/06 11:01:32;;;;;;;11.80;7.32;;;;;;;20.30;48.42;102388.69;5074318;28;20465;-85
2022/05/06 11:03:58;;;;;;;12.50;7.07;;;;;;;20.48;48.53;102389.63;5072556;28;20115;-85
2022/05/06 11:06:27;;;;;;;8.98;6.68;;;;;;;20.55;47.58;102389.44;5075270;28;20545;-86
2022/05/06 11:08:53;;;;;;;7.78;6.45;;;;;;;20.88;46.71;102387.94;5073664;28;20043;-85
2022/05/06 11:11:21;;;;;;;8.77;6.63;;;;;;;21.37;45.04;102391.81;5073725;28;20523;-86
2022/05/06 11:13:51;;;;;;;10.45;6.72;;;;;;;22.25;43.46;102380.13;5074077;28;20032;-86
2022/05/06 11:16:17;;;;;;;15.05;6.88;;;;;;;24.12;39.79;102384.31;5075413;28;20028;-86
2022/05/06 11:18:44;;;;;;;12.27;7.00;;;;;;;24.14;39.26;102384.03;5074025;28;20035;-86
2022/05/06 11:21:31;;;;;;;9.95;6.75;;;;;;;25.52;37.82;102377.91;5056846;28;20036;-86
2022/05/06 11:23:59;;;;;;;5.97;4.93;;;;;;;28.60;31.02;102376.72;5073875;28;20033;-86
2022/05/06 11:26:26;;;;;;;6.75;5.38;;;;;;;31.39;27.38;102364.38;5073565;28;20519;-86
2022/05/06 11:29:08;;;;;;;7.75;6.00;;;;;;;32.83;27.38;102379.81;5073684;28;20021;-86
2022/05/06 11:31:33;;;;;;;8.50;6.80;;;;;;;34.46;22.54;102353.72;5073694;28;20028;-85
2022/05/06 11:34:04;;;;;;;8.53;6.67;;;;;;;35.31;22.91;102365.72;5072649;28;20065;-85
2022/05/06 11:36:35;;;;;;;8.88;7.45;;;;;;;36.10;21.78;102347.75;5073671;28;20115;-87
2022/05/06 11:39:13;;;;;;;8.90;7.97;;;;;;;37.37;21.86;102345.38;5072707;28;20025;-86
2022/05/06 11:41:38;;;;;;;10.00;7.93;;;;;;;38.21;18.46;102343.38;5073368;28;20068;-86
2022/05/06 11:44:05;;;;;;;13.17;8.47;;;;;;;37.70;18.21;102338.50;5073376;28;20118;-86
2022/05/06 11:49:29;;;;;;;9.10;7.65;;;;;;;39.00;18.77;102337.69;5074483;28;20067;-86
2022/05/06 11:51:56;;;;;;;10.00;7.90;;;;;;;39.74;16.43;102343.03;5072306;28;20064;-86
2022/05/06 11:54:25;;;;;;;8.07;7.28;;;;;;;40.38;15.77;102316.75;5072542;28;20493;-87
2022/05/06 11:56:51;;;;;;;8.52;7.63;;;;;;;41.03;15.92;102326.03;5074174;28;20111;-86
2022/05/06 11:59:20;;;;;;;9.23;7.18;;;;;;;41.37;15.28;102318.25;5072646;28;20032;-86
2022/05/06 12:01:46;;;;;;;9.27;7.50;;;;;;;41.01;14.46;102306.50;5073257;28;20045;-86
2022/05/06 12:04:11;;;;;;;8.30;7.00;;;;;;;41.01;14.36;102320.72;5071673;28;20082;-86
2022/05/06 12:06:52;;;;;;;9.97;7.60;;;;;;;40.51;15.29;102312.47;5073842;28;20082;-86
2022/05/06 12:09:24;;;;;;;12.55;7.90;;;;;;;40.99;14.75;102300.41;5072346;28;20029;-86
2022/05/06 12:12:13;;;;;;;8.25;7.25;;;;;;;42.65;15.71;102301.44;5072895;28;20036;-86
2022/05/06 12:14:41;;;;;;;9.20;8.30;;;;;;;42.63;13.32;102300.22;5072789;28;20058;-87
2022/05/06 12:17:17;;;;;;;9.52;8.73;;;;;;;42.91;13.66;102294.53;5074024;28;20032;-86
2022/05/06 12:19:44;;;;;;;9.13;8.33;;;;;;;43.72;12.76;102287.56;5072982;28;20085;-86
2022/05/06 12:22:15;;;;;;;9.27;8.20;;;;;;;44.26;12.87;102290.28;5073729;28;20036;-86
2022/05/06 12:24:58;;;;;;;8.90;8.10;;;;;;;44.81;13.64;102283.81;5072758;28;20119;-86
2022/05/06 12:27:28;;;;;;;8.95;8.05;;;;;;;44.67;11.92;102279.00;5072700;28;20036;-86
2022/05/06 12:29:58;;;;;;;8.82;8.02;;;;;;;45.26;11.38;102279.38;5072159;28;20028;-86
2022/05/06 12:32:24;;;;;;;9.83;8.20;;;;;;;46.13;10.83;102293.59;5072304;28;20036;-86
2022/05/06 12:35:12;;;;;;;8.77;7.97;;;;;;;48.04;11.16;102270.25;5071239;28;20111;-87
2022/05/06 12:37:58;;;;;;;11.48;9.15;;;;;;;47.10;11.83;102260.56;5072470;28;20028;-86
2022/05/06 12:40:34;;;;;;;9.85;8.85;;;;;;;45.24;12.15;102258.91;5071702;28;20082;-86
2022/05/06 12:43:12;;;;;;;9.45;8.65;;;;;;;46.22;11.67;102254.53;5072329;28;20431;-86
2022/05/06 12:45:53;;;;;;;11.00;9.90;;;;;;;46.47;11.21;102264.84;5074038;28;20028;-86
2022/05/06 12:51:07;;;;;;;10.90;9.88;;;;;;;43.96;11.49;102263.84;5073410;28;20075;-86
2022/05/06 12:53:34;;;;;;;10.50;9.48;;;;;;;44.33;11.65;102253.06;5073726;28;20024;-86
2022/05/06 12:56:17;;;;;;;12.53;11.10;;;;;;;44.11;11.91;102258.06;5072195;28;20115;-86
2022/05/06 12:58:43;;;;;;;11.32;10.20;;;;;;;43.06;11.89;102260.31;5072468;28;20055;-86
2022/05/06 13:01:09;;;;;;;11.30;10.30;;;;;;;44.50;11.53;102243.56;5072996;28;20060;-86
2022/05/06 13:03:36;;;;;;;11.57;10.47;;;;;;;45.64;11.37;102253.59;5073181;28;20036;-86
2022/05/06 13:06:02;;;;;;;11.00;9.80;;;;;;;46.62;9.46;102253.97;5072207;28;20071;-86
2022/05/06 13:08:28;;;;;;;11.33;10.20;;;;;;;46.49;9.57;102247.97;5072723;28;20033;-86
2022/05/06 13:10:55;;;;;;;11.77;10.68;;;;;;;46.18;9.79;102241.47;5072431;28;20511;-86
2022/05/06 13:13:21;;;;;;;11.80;10.70;;;;;;;46.85;9.46;102235.97;5071894;28;20041;-86
2022/05/06 13:15:46;;;;;;;11.87;10.67;;;;;;;47.43;9.49;102237.81;5055643;28;20043;-86
2022/05/06 13:18:12;;;;;;;13.33;11.50;;;;;;;46.18;10.28;102245.13;5073065;28;20499;-86
2022/05/06 13:20:37;;;;;;;14.13;12.60;;;;;;;43.11;11.61;102242.78;5072368;28;20029;-87
2022/05/06 13:23:03;;;;;;;13.27;11.77;;;;;;;43.09;11.41;102226.06;5073423;28;20029;-87
2022/05/06 13:25:31;;;;;;;12.57;11.27;;;;;;;44.57;10.86;102231.22;5072553;28;20473;-86
2022/05/06 13:27:56;;;;;;;11.65;10.43;;;;;;;44.39;10.92;102233.41;5073031;28;20041;-86
2022/05/06 13:30:23;;;;;;;11.20;10.03;;;;;;;44.82;10.32;102221.66;5072178;28;20086;-86
2022/05/06 13:32:48;;;;;;;12.10;10.07;;;;;;;45.09;9.83;102232.47;5055178;28;20021;-87
2022/05/06 13:35:14;;;;;;;11.67;10.50;;;;;;;45.36;9.80;102229.75;5072828;28;20495;-86
2022/05/06 13:37:42;;;;;;;12.50;11.25;;;;;;;45.91;9.55;102230.78;5072966;28;20033;-86
2022/05/06 13:40:10;;;;;;;12.43;11.27;;;;;;;45.92;9.76;102223.81;5072730;28;20039;-86
2022/05/06 13:42:36;;;;;;;12.30;11.10;;;;;;;46.37;9.38;102226.44;5071873;28;20111;-86
2022/05/06 13:45:02;;;;;;;13.97;12.20;;;;;;;46.27;9.20;102218.81;5072120;28;20017;-87
2022/05/06 13:47:30;;;;;;;12.63;11.35;;;;;;;46.19;9.41;102221.00;5071844;28;20066;-87
2022/05/06 13:50:01;;;;;;;11.20;10.15;;;;;;;46.75;9.85;102226.28;5072725;28;20035;-87
2022/05/06 13:52:28;;;;;;;12.65;11.40;;;;;;;47.74;8.42;102217.50;5071554;28;20025;-86
2022/05/06 13:54:56;;;;;;;12.93;11.67;;;;;;;46.48;9.08;102214.81;5073403;28;20052;-86
2022/05/06 14:00:11;;;;;;;13.25;11.65;;;;;;;41.88;12.43;102210.31;5076620;28;20075;-86
2022/05/06 14:02:37;;;;;;;13.48;12.18;;;;;;;43.35;11.19;102201.16;5075823;28;20032;-86
2022/05/06 14:05:02;;;;;;;14.57;11.40;;;;;;;43.51;10.55;102199.88;5075014;28;20377;-86
2022/05/06 14:07:28;;;;;;;12.03;10.83;;;;;;;42.91;11.04;102206.06;5077205;28;20029;-86
2022/05/06 14:09:54;;;;;;;16.10;11.98;;;;;;;41.10;12.48;102209.41;5058180;28;20036;-87
2022/05/06 14:12:22;;;;;;;14.40;11.97;;;;;;;39.11;13.78;102194.84;5075196;28;20031;-86
2022/05/06 14:14:47;;;;;;;16.52;12.40;;;;;;;36.78;15.49;102188.69;5042362;28;20032;-86
2022/05/06 14:17:16;;;;;;;15.87;12.37;;;;;;;34.63;17.60;102205.41;5058287;28;20029;-86
2022/05/06 14:19:41;;;;;;;14.10;12.45;;;;;;;35.56;16.94;102191.59;5058803;28;20024;-86
2022/05/06 14:22:10;;;;;;;14.13;11.30;;;;;;;37.98;15.58;102195.13;5075449;28;20033;-86
2022/05/06 14:24:36;;;;;;;14.80;11.43;;;;;;;39.57;13.78;102185.41;5074609;28;20035;-86
2022/05/06 14:27:01;;;;;;;17.80;11.30;;;;;;;40.78;13.54;102187.19;5074820;28;20021;-86
2022/05/06 14:29:29;;;;;;;16.50;11.45;;;;;;;41.32;12.81;102192.50;5075352;28;20376;-87
2022/05/06 14:31:56;;;;;;;14.65;11.02;;;;;;;43.01;11.73;102203.63;5075059;28;20472;-87
2022/05/06 14:34:24;;;;;;;12.60;10.50;;;;;;;43.15;11.33;102188.53;5075334;28;20041;-86
2022/05/06 14:36:52;;;;;;;12.18;9.95;;;;;;;44.25;10.97;102186.53;5075130;28;20032;-87
2022/05/06 14:39:17;;;;;;;12.50;10.93;;;;;;;42.11;11.83;102178.66;5075116;28;20085;-87
2022/05/06 14:41:48;;;;;;;13.00;11.50;;;;;;;40.14;13.28;102179.63;5074906;28;20028;-94
2022/05/06 14:44:26;;;;;;;15.55;11.15;;;;;;;40.73;13.30;102178.19;5059020;28;20378;-91
2022/05/06 14:47:02;;;;;;;13.23;11.15;;;;;;;42.14;11.67;102177.84;5058233;28;20040;-90
2022/05/06 14:49:45;;;;;;;17.63;11.43;;;;;;;42.88;11.55;102168.97;5074557;28;20059;-90
2022/05/06 14:52:24;;;;;;;;;;;;;;;;;;;;;
2022/05/06 14:55:05;;;;;;;12.18;10.98;;;;;;;44.14;11.06;102174.31;5075945;28;20024;-90
2022/05/06 14:57:34;;;;;;;11.70;10.35;;;;;;;45.09;9.62;102167.47;5075091;28;20033;-87
2022/05/06 15:00:05;;;;;;;11.75;10.48;;;;;;;44.77;10.34;102159.16;5074619;28;20036;-88